Time;durP1;ratioP1;P1;durP2;ratioP2;P2;SDS_P1;SDS_P2;PMS_P1;PMS_P2;Temp;Humidity;BMP_temperature;BMP_pressure;BME280_temperature;BME280_humidity;BME280_pressure;Samples;Min_cycle;Max_cycle;Signal;HPM_P1;HPM_P2
2023/06/14 00:00:21;;;;;;;0.57;0.57;;;14.70;82.00;;;;;;5088349;28;19920;-74
2023/06/14 00:02:47;;;;;;;0.20;0.20;;;14.60;78.60;;;;;;5087934;28;20077;-74
2023/06/14 00:05:14;;;;;;;0.20;0.20;;;14.50;80.40;;;;;;5088538;28;20608;-74
2023/06/14 00:07:44;;;;;;;0.22;0.22;;;14.50;82.10;;;;;;5070618;28;20108;-73
2023/06/14 00:10:11;;;;;;;0.30;0.30;;;14.40;82.60;;;;;;5088311;28;20050;-74
2023/06/14 00:12:38;;;;;;;0.30;0.30;;;14.40;83.70;;;;;;5088281;28;20439;-74
2023/06/14 00:15:04;;;;;;;0.20;0.20;;;14.40;85.60;;;;;;5087696;28;20105;-74
2023/06/14 00:17:30;;;;;;;0.40;0.40;;;14.40;88.00;;;;;;5071151;28;20051;-74
2023/06/14 00:19:56;;;;;;;;;;;14.30;88.10;;;;;;5088708;28;20039;-74
2023/06/14 00:22:24;;;;;;;0.30;0.30;;;14.30;90.30;;;;;;5071402;28;19926;-74
2023/06/14 00:24:50;;;;;;;0.30;0.30;;;14.20;90.80;;;;;;5087910;28;20122;-74
2023/06/14 00:27:16;;;;;;;0.20;0.20;;;14.20;91.20;;;;;;5087356;28;20193;-74
2023/06/14 00:29:42;;;;;;;;;;;14.20;91.50;;;;;;5071407;28;20047;-74
2023/06/14 00:32:08;;;;;;;0.25;0.25;;;14.10;91.10;;;;;;5088038;28;19920;-74
2023/06/14 00:34:33;;;;;;;0.17;0.17;;;14.10;92.40;;;;;;5087836;28;20059;-74
2023/06/14 00:36:59;;;;;;;;;;;14.20;91.50;;;;;;5054876;28;20074;-74
2023/06/14 00:39:25;;;;;;;0.28;0.28;;;14.20;94.10;;;;;;5088166;28;19916;-74
2023/06/14 00:41:50;;;;;;;0.30;0.30;;;14.10;93.70;;;;;;5071174;28;20044;-74
2023/06/14 00:44:17;;;;;;;0.22;0.22;;;14.10;94.00;;;;;;5087470;28;20039;-74
2023/06/14 00:46:43;;;;;;;;;;;14.10;94.40;;;;;;5070965;28;20047;-74
2023/06/14 00:49:10;;;;;;;0.30;0.30;;;14.10;93.20;;;;;;5071008;28;19927;-74
2023/06/14 00:51:37;;;;;;;0.20;0.20;;;14.00;93.80;;;;;;5087494;28;20175;-74
2023/06/14 00:54:03;;;;;;;0.30;0.30;;;13.90;96.00;;;;;;5070948;28;20048;-74
2023/06/14 00:56:29;;;;;;;0.30;0.30;;;13.90;93.30;;;;;;5087350;28;20097;-74
2023/06/14 00:58:57;;;;;;;0.30;0.30;;;13.90;93.70;;;;;;5070993;28;20048;-74
2023/06/14 01:01:23;;;;;;;0.25;0.25;;;13.90;96.80;;;;;;5087847;28;20044;-74
2023/06/14 01:03:51;;;;;;;0.28;0.28;;;13.80;96.60;;;;;;5087323;28;20048;-74
2023/06/14 01:07:03;;;;;;;0.20;0.20;;;13.80;97.40;;;;;;5070830;28;20032;-74
2023/06/14 01:09:53;;;;;;;0.20;0.20;;;13.80;96.30;;;;;;5087589;28;20488;-74
2023/06/14 01:12:35;;;;;;;0.30;0.30;;;13.70;94.70;;;;;;5088161;28;20553;-74
2023/06/14 01:15:02;;;;;;;0.30;0.30;;;13.80;95.90;;;;;;5088134;28;20039;-75
2023/06/14 01:17:31;;;;;;;0.75;0.75;;;13.70;99.10;;;;;;5087643;28;20048;-75
2023/06/14 01:20:10;;;;;;;0.30;0.30;;;13.60;99.90;;;;;;5088050;28;20123;-75
2023/06/14 01:22:35;;;;;;;0.30;0.30;;;13.60;98.40;;;;;;5087760;28;20048;-73
2023/06/14 01:25:01;;;;;;;;;;;13.60;99.90;;;;;;5088134;28;20054;-74
2023/06/14 01:27:32;;;;;;;0.20;0.20;;;13.50;99.90;;;;;;5087922;28;19920;-74
2023/06/14 01:29:59;;;;;;;0.30;0.30;;;13.50;99.90;;;;;;5092254;28;20117;-74
2023/06/14 01:32:26;;;;;;;0.40;0.40;;;13.50;99.90;;;;;;5125454;27;20087;-74
2023/06/14 01:34:52;;;;;;;0.22;0.22;;;13.50;99.90;;;;;;5090596;28;20036;-73
2023/06/14 01:37:20;;;;;;;0.30;0.30;;;13.50;99.90;;;;;;5091539;28;20160;-73
2023/06/14 01:39:47;;;;;;;0.32;0.32;;;13.40;99.90;;;;;;5091255;28;20028;-74
2023/06/14 01:42:14;;;;;;;0.28;0.28;;;13.40;99.90;;;;;;5091406;28;20159;-74
2023/06/14 01:44:43;;;;;;;0.35;0.35;;;13.30;99.90;;;;;;5073650;28;20047;-74
2023/06/14 01:47:09;;;;;;;0.57;0.57;;;13.30;99.90;;;;;;5091029;28;20047;-74
2023/06/14 01:49:35;;;;;;;0.30;0.30;;;13.20;99.90;;;;;;5073550;28;20044;-74
2023/06/14 01:52:01;;;;;;;;;;;13.10;99.90;;;;;;5091068;28;20127;-74
2023/06/14 01:54:27;;;;;;;0.30;0.30;;;13.20;99.90;;;;;;5090875;28;20445;-74
2023/06/14 01:56:53;;;;;;;;;;;13.10;99.90;;;;;;5074075;28;20044;-74
2023/06/14 01:59:18;;;;;;;0.20;0.20;;;13.10;99.90;;;;;;5090704;28;20006;-74
2023/06/14 02:01:47;;;;;;;0.30;0.30;;;13.10;99.90;;;;;;5090204;28;20134;-74
2023/06/14 02:04:13;;;;;;;0.40;0.40;;;13.00;99.90;;;;;;5073708;28;20076;-74
2023/06/14 02:06:38;;;;;;;0.30;0.30;;;13.00;99.90;;;;;;5090528;28;20079;-74
2023/06/14 02:09:04;;;;;;;0.40;0.40;;;12.90;99.90;;;;;;5073506;28;20036;-74
2023/06/14 02:11:30;;;;;;;1.25;0.82;;;12.90;99.90;;;;;;5073565;28;20040;-74
2023/06/14 02:13:56;;;;;;;;;;;12.90;99.90;;;;;;5090402;28;20424;-74
2023/06/14 02:16:22;;;;;;;0.30;0.30;;;12.90;99.90;;;;;;5073917;28;19916;-74
2023/06/14 02:18:48;;;;;;;0.20;0.20;;;12.90;99.90;;;;;;5090202;28;20094;-74
2023/06/14 02:21:14;;;;;;;;;;;12.90;99.90;;;;;;5091150;28;20090;-74
2023/06/14 02:23:39;;;;;;;0.30;0.30;;;12.80;99.90;;;;;;5089889;28;19967;-75
2023/06/14 02:26:05;;;;;;;0.25;0.25;;;12.80;99.90;;;;;;5089901;28;20048;-75
2023/06/14 02:28:31;;;;;;;0.55;0.55;;;12.80;99.90;;;;;;5073379;28;20173;-74
2023/06/14 02:30:57;;;;;;;0.35;0.35;;;12.70;99.90;;;;;;5089504;28;20047;-75
2023/06/14 02:33:22;;;;;;;0.30;0.30;;;12.60;99.90;;;;;;5073258;28;20047;-74
2023/06/14 02:35:48;;;;;;;0.32;0.32;;;12.60;99.90;;;;;;5089623;28;20036;-74
2023/06/14 02:38:14;;;;;;;0.30;0.30;;;12.50;99.90;;;;;;5072375;28;20083;-74
2023/06/14 02:40:42;;;;;;;0.25;0.25;;;12.50;99.90;;;;;;5090005;28;20047;-75
2023/06/14 02:43:08;;;;;;;0.20;0.20;;;12.60;99.90;;;;;;5089771;28;20159;-74
2023/06/14 02:45:34;;;;;;;0.40;0.40;;;12.40;99.90;;;;;;5072932;28;20047;-75
2023/06/14 02:47:59;;;;;;;;;;;12.40;99.90;;;;;;5089882;28;20117;-74
2023/06/14 02:50:25;;;;;;;0.40;0.40;;;12.30;99.90;;;;;;5123758;27;19916;-75
2023/06/14 02:52:52;;;;;;;0.40;0.40;;;12.30;99.90;;;;;;5104738;28;20055;-74
2023/06/14 02:55:18;;;;;;;0.38;0.38;;;12.20;99.90;;;;;;5089389;28;20116;-74
2023/06/14 02:57:43;;;;;;;0.22;0.22;;;12.20;99.90;;;;;;5088761;28;20056;-75
2023/06/14 03:00:10;;;;;;;;;;;12.10;99.90;;;;;;5072653;28;20040;-73
2023/06/14 03:02:36;;;;;;;0.40;0.40;;;12.00;99.90;;;;;;5088326;28;19926;-74
2023/06/14 03:05:02;;;;;;;0.30;0.30;;;11.90;99.90;;;;;;5071376;28;20342;-74
2023/06/14 03:07:29;;;;;;;0.40;0.40;;;11.90;99.90;;;;;;5088570;28;20112;-74
2023/06/14 03:09:55;;;;;;;0.30;0.30;;;11.90;99.90;;;;;;5071542;28;20044;-75
2023/06/14 03:12:20;;;;;;;0.50;0.50;;;11.80;99.90;;;;;;5089024;28;20047;-73
2023/06/14 03:14:46;;;;;;;0.40;0.40;;;11.80;99.90;;;;;;5089080;28;20118;-73
2023/06/14 03:17:12;;;;;;;0.30;0.30;;;11.80;99.90;;;;;;5055603;28;20504;-73
2023/06/14 03:19:38;;;;;;;0.38;0.38;;;11.70;99.90;;;;;;5088564;28;20036;-73
2023/06/14 03:22:04;;;;;;;0.50;0.50;;;11.70;99.90;;;;;;5072698;28;20132;-74
2023/06/14 03:24:31;;;;;;;0.30;0.30;;;11.70;99.90;;;;;;5089365;28;20457;-74
2023/06/14 03:26:57;;;;;;;0.40;0.40;;;11.70;99.90;;;;;;5088400;28;20060;-74
2023/06/14 03:29:23;;;;;;;0.40;0.40;;;11.70;99.90;;;;;;5122965;27;20054;-73
2023/06/14 03:32:00;;;;;;;0.30;0.30;;;11.70;99.90;;;;;;5105302;28;20166;-73
2023/06/14 03:34:26;;;;;;;0.30;0.30;;;11.70;99.90;;;;;;5106035;28;20046;-74
2023/06/14 03:36:51;;;;;;;0.38;0.38;;;11.70;99.90;;;;;;5071966;28;20044;-74
2023/06/14 03:39:17;;;;;;;0.35;0.35;;;11.70;99.90;;;;;;5072201;28;20039;-74
2023/06/14 03:41:43;;;;;;;0.25;0.25;;;11.70;99.90;;;;;;5071435;28;20577;-74
2023/06/14 03:44:08;;;;;;;1.10;0.50;;;11.80;99.90;;;;;;5071615;28;20395;-74
2023/06/14 03:46:34;;;;;;;0.40;0.40;;;11.80;99.90;;;;;;5088627;28;20040;-74
2023/06/14 03:49:00;;;;;;;0.40;0.40;;;11.80;99.90;;;;;;5071283;28;20136;-74
2023/06/14 03:51:26;;;;;;;0.40;0.40;;;11.80;99.90;;;;;;5054271;28;20104;-75
2023/06/14 03:53:51;;;;;;;0.30;0.30;;;11.90;99.90;;;;;;5055008;28;20055;-74
2023/06/14 03:56:17;;;;;;;0.30;0.30;;;11.90;99.90;;;;;;5089742;28;20040;-75
2023/06/14 03:58:43;;;;;;;0.40;0.40;;;12.00;99.90;;;;;;5072292;28;20063;-74
2023/06/14 04:01:08;;;;;;;0.40;0.40;;;12.10;99.90;;;;;;5072142;28;20052;-75
2023/06/14 04:03:34;;;;;;;0.30;0.30;;;12.20;99.90;;;;;;5088759;28;20051;-74
2023/06/14 04:06:00;;;;;;;0.30;0.30;;;12.30;99.90;;;;;;5071652;28;20032;-75
2023/06/14 04:08:26;;;;;;;0.40;0.40;;;12.40;99.90;;;;;;5088664;28;20385;-74
2023/06/14 04:10:52;;;;;;;2.88;0.57;;;12.50;99.90;;;;;;5071395;28;20036;-75
2023/06/14 04:13:17;;;;;;;0.35;0.35;;;12.60;99.90;;;;;;5071896;28;20135;-74
2023/06/14 04:15:45;;;;;;;0.47;0.47;;;12.80;99.90;;;;;;5088969;28;20051;-74
2023/06/14 04:18:11;;;;;;;0.30;0.30;;;12.90;99.90;;;;;;5089128;28;20461;-74
2023/06/14 04:20:37;;;;;;;0.40;0.40;;;13.00;99.90;;;;;;5088507;28;20119;-74
2023/06/14 04:23:14;;;;;;;;;;;13.10;99.90;;;;;;5071598;28;20048;-75
2023/06/14 04:25:40;;;;;;;0.30;0.30;;;13.30;99.90;;;;;;5088033;28;19951;-74
2023/06/14 04:28:08;;;;;;;;;;;13.40;99.90;;;;;;5087886;28;20048;-75
2023/06/14 04:30:35;;;;;;;0.30;0.30;;;13.50;99.90;;;;;;5088382;28;19971;-75
2023/06/14 04:33:05;;;;;;;0.32;0.32;;;13.60;99.90;;;;;;5071201;28;20047;-75
2023/06/14 04:35:32;;;;;;;0.30;0.30;;;13.70;99.90;;;;;;5122110;28;20044;-75
2023/06/14 04:37:59;;;;;;;0.30;0.30;;;13.80;99.90;;;;;;5087594;28;20040;-74
2023/06/14 04:40:25;;;;;;;0.20;0.20;;;13.90;99.90;;;;;;5070654;28;20504;-75
2023/06/14 04:42:51;;;;;;;;;;;13.90;99.90;;;;;;5088065;28;20063;-75
2023/06/14 04:45:17;;;;;;;0.20;0.20;;;14.00;99.90;;;;;;5071034;28;19920;-74
2023/06/14 04:47:43;;;;;;;;;;;14.10;99.90;;;;;;5088475;28;20032;-74
2023/06/14 04:50:13;;;;;;;0.30;0.30;;;14.20;99.90;;;;;;5087878;28;19920;-74
2023/06/14 04:52:38;;;;;;;0.32;0.32;;;14.30;99.90;;;;;;5087592;28;20101;-74
2023/06/14 04:55:05;;;;;;;;;;;14.30;99.90;;;;;;5054340;28;20438;-74
2023/06/14 04:57:31;;;;;;;0.30;0.30;;;14.40;99.90;;;;;;5087982;28;19920;-74
2023/06/14 04:59:57;;;;;;;;;;;14.40;99.90;;;;;;5088077;28;20108;-75
2023/06/14 05:02:24;;;;;;;0.30;0.30;;;14.50;99.90;;;;;;5090075;28;19919;-75
2023/06/14 05:04:50;;;;;;;0.43;0.43;;;14.60;99.90;;;;;;5091390;28;20102;-75
2023/06/14 05:07:16;;;;;;;0.30;0.30;;;14.60;99.90;;;;;;5091746;28;20507;-75
2023/06/14 05:09:42;;;;;;;;;;;14.70;99.90;;;;;;5092089;28;20048;-75
2023/06/14 05:12:07;;;;;;;0.30;0.30;;;14.80;99.90;;;;;;5090976;28;19920;-75
2023/06/14 05:14:34;;;;;;;0.20;0.20;;;14.80;99.90;;;;;;5126070;27;20489;-75
2023/06/14 05:17:00;;;;;;;0.30;0.30;;;14.90;99.90;;;;;;5091280;28;20044;-75
2023/06/14 05:19:26;;;;;;;;;;;15.00;99.90;;;;;;5091803;28;20055;-75
2023/06/14 05:21:53;;;;;;;0.30;0.30;;;15.00;99.90;;;;;;5090964;28;19916;-75
2023/06/14 05:24:19;;;;;;;0.20;0.20;;;15.10;99.90;;;;;;5074390;28;20063;-75
2023/06/14 05:26:46;;;;;;;0.28;0.28;;;15.20;99.90;;;;;;5091487;28;20121;-75
2023/06/14 05:29:12;;;;;;;0.30;0.30;;;15.20;99.90;;;;;;5091380;28;20044;-75
2023/06/14 05:31:38;;;;;;;;;;;15.40;99.90;;;;;;5091905;28;20451;-75
2023/06/14 05:34:04;;;;;;;0.20;0.20;;;15.40;99.90;;;;;;5091036;28;19924;-75
2023/06/14 05:36:30;;;;;;;0.20;0.20;;;15.50;99.90;;;;;;5091428;28;20040;-74
2023/06/14 05:38:59;;;;;;;;;;;15.60;99.90;;;;;;5091520;28;20103;-75
2023/06/14 05:41:28;;;;;;;0.15;0.15;;;15.70;99.90;;;;;;5091658;28;20277;-75
2023/06/14 05:43:55;;;;;;;0.25;0.25;;;15.70;99.90;;;;;;5091183;28;20048;-75
2023/06/14 05:46:25;;;;;;;0.20;0.20;;;15.80;99.90;;;;;;5091988;28;20386;-75
2023/06/14 05:48:51;;;;;;;0.47;0.47;;;15.90;99.90;;;;;;5058163;28;20123;-75
2023/06/14 05:51:20;;;;;;;0.32;0.32;;;15.90;99.90;;;;;;5074324;28;20137;-75
2023/06/14 05:53:48;;;;;;;0.20;0.20;;;16.00;99.90;;;;;;5091423;28;20040;-75
2023/06/14 05:56:14;;;;;;;0.57;0.32;;;16.10;99.90;;;;;;5090895;28;20063;-75
2023/06/14 05:58:40;;;;;;;3.67;1.08;;;16.10;99.90;;;;;;5074296;28;20036;-75
2023/06/14 06:01:06;;;;;;;;;;;16.20;99.90;;;;;;5090850;28;20181;-75
2023/06/14 06:03:32;;;;;;;0.68;0.68;;;16.10;99.90;;;;;;5090452;28;20000;-75
2023/06/14 06:05:59;;;;;;;0.55;0.52;;;16.30;99.90;;;;;;5090264;28;20047;-75
2023/06/14 06:08:25;;;;;;;0.52;0.52;;;16.40;99.90;;;;;;5073585;28;20043;-75
2023/06/14 06:10:51;;;;;;;0.20;0.20;;;16.50;99.90;;;;;;5090372;28;20126;-75
2023/06/14 06:13:17;;;;;;;;;;;16.60;99.90;;;;;;5057015;28;20136;-74
2023/06/14 06:15:42;;;;;;;0.52;0.50;;;16.60;99.90;;;;;;5090402;28;19920;-75
2023/06/14 06:18:08;;;;;;;;;;;16.70;99.90;;;;;;5090934;28;20040;-74
2023/06/14 06:20:34;;;;;;;0.30;0.30;;;16.70;99.90;;;;;;5090600;28;20011;-75
2023/06/14 06:23:00;;;;;;;;;;;16.80;99.90;;;;;;5073363;28;20507;-74
2023/06/14 06:25:26;;;;;;;0.28;0.28;;;16.90;99.90;;;;;;5069838;28;19959;-75
2023/06/14 06:27:53;;;;;;;0.30;0.30;;;16.90;99.90;;;;;;5069693;28;20059;-75
2023/06/14 06:30:20;;;;;;;0.30;0.30;;;17.00;99.90;;;;;;5070385;28;20051;-75
2023/06/14 06:32:46;;;;;;;0.20;0.20;;;17.10;99.90;;;;;;5074497;28;20442;-75
2023/06/14 06:35:12;;;;;;;0.22;0.22;;;17.20;99.90;;;;;;5090972;28;20694;-75
2023/06/14 06:37:39;;;;;;;0.30;0.30;;;17.30;99.90;;;;;;5075529;28;20052;-76
2023/06/14 06:40:05;;;;;;;0.85;0.85;;;17.30;99.90;;;;;;5058251;28;20481;-75
2023/06/14 06:42:32;;;;;;;0.30;0.30;;;17.40;99.90;;;;;;5073393;28;20428;-75
2023/06/14 06:44:58;;;;;;;0.30;0.30;;;17.50;99.90;;;;;;5072727;28;20051;-75
2023/06/14 06:47:24;;;;;;;;;;;17.60;99.90;;;;;;5091021;28;20040;-75
2023/06/14 06:49:50;;;;;;;0.20;0.20;;;17.80;99.90;;;;;;5073417;28;19919;-73
2023/06/14 06:52:16;;;;;;;;;;;18.00;99.90;;;;;;5102088;28;20050;-75
2023/06/14 06:54:41;;;;;;;0.47;0.47;;;18.10;99.90;;;;;;5094817;28;19916;-75
2023/06/14 06:57:07;;;;;;;;;;;18.20;99.90;;;;;;5073372;28;20136;-75
2023/06/14 06:59:33;;;;;;;0.17;0.17;;;18.40;99.90;;;;;;5090042;28;20320;-74
2023/06/14 07:01:59;;;;;;;0.28;0.28;;;18.50;99.90;;;;;;5072104;28;20047;-74
2023/06/14 07:04:25;;;;;;;;;;;18.60;99.90;;;;;;5073161;28;20040;-74
2023/06/14 07:06:51;;;;;;;0.50;0.50;;;18.80;99.90;;;;;;5089764;28;20399;-74
2023/06/14 07:09:16;;;;;;;;;;;18.90;99.90;;;;;;5073120;28;20044;-75
2023/06/14 07:11:46;;;;;;;0.20;0.20;;;19.00;99.90;;;;;;5089918;28;20405;-75
2023/06/14 07:14:12;;;;;;;0.50;0.50;;;19.10;99.90;;;;;;5072575;28;20036;-75
2023/06/14 07:16:37;;;;;;;0.22;0.22;;;19.30;99.90;;;;;;5073119;28;20491;-75
2023/06/14 07:19:04;;;;;;;0.30;0.30;;;19.40;99.90;;;;;;5088944;28;20131;-74
2023/06/14 07:21:30;;;;;;;1.90;0.70;;;19.50;99.90;;;;;;5072796;28;20036;-75
2023/06/14 07:23:55;;;;;;;0.10;0.10;;;19.60;99.90;;;;;;5089267;28;20044;-74
2023/06/14 07:26:21;;;;;;;;;;;19.80;99.90;;;;;;5084757;28;20036;-75
2023/06/14 07:28:48;;;;;;;0.38;0.38;;;19.90;99.90;;;;;;5071138;28;19922;-74
2023/06/14 07:31:15;;;;;;;0.25;0.25;;;20.00;99.90;;;;;;5072235;28;20082;-75
2023/06/14 07:33:41;;;;;;;0.10;0.10;;;20.20;99.90;;;;;;5089338;28;20522;-74
2023/06/14 07:36:07;;;;;;;0.15;0.15;;;20.30;99.10;;;;;;5088521;28;20082;-75
2023/06/14 07:38:33;;;;;;;0.20;0.20;;;20.40;98.50;;;;;;5072074;28;20044;-75
2023/06/14 07:40:59;;;;;;;0.30;0.30;;;20.50;98.40;;;;;;5071903;28;20385;-75
2023/06/14 07:43:25;;;;;;;0.40;0.40;;;20.60;98.00;;;;;;5072165;28;20127;-75
2023/06/14 07:45:51;;;;;;;0.20;0.20;;;20.70;98.20;;;;;;5072094;28;20123;-75
2023/06/14 07:48:16;;;;;;;;;;;20.80;97.60;;;;;;5055195;28;20093;-75
2023/06/14 07:50:42;;;;;;;0.28;0.28;;;20.90;96.90;;;;;;5071859;28;19946;-75
2023/06/14 07:53:08;;;;;;;0.45;0.45;;;21.00;97.30;;;;;;5087366;28;20050;-75
2023/06/14 07:55:36;;;;;;;0.20;0.20;;;21.10;96.60;;;;;;5072176;28;20060;-75
2023/06/14 07:58:03;;;;;;;0.55;0.55;;;21.20;97.40;;;;;;5072018;28;20398;-75
2023/06/14 08:00:28;;;;;;;0.85;0.40;;;21.30;96.20;;;;;;5071737;28;20494;-75
2023/06/14 08:02:59;;;;;;;0.28;0.28;;;21.40;95.70;;;;;;5055036;28;20109;-74
2023/06/14 08:05:25;;;;;;;4.57;0.93;;;21.40;95.50;;;;;;5088681;28;20529;-74
2023/06/14 08:07:52;;;;;;;1.73;0.70;;;21.50;95.10;;;;;;5089017;28;20114;-75
2023/06/14 08:10:18;;;;;;;0.50;0.50;;;21.50;94.40;;;;;;5088346;28;20460;-75
2023/06/14 08:12:44;;;;;;;0.20;0.20;;;21.60;94.00;;;;;;5088382;28;20131;-75
2023/06/14 08:15:10;;;;;;;0.32;0.20;;;21.60;92.80;;;;;;5087860;28;20114;-75
2023/06/14 08:17:36;;;;;;;0.32;0.30;;;21.60;93.40;;;;;;5088314;28;20477;-76
2023/06/14 08:20:04;;;;;;;0.22;0.22;;;21.70;93.40;;;;;;5087991;28;20039;-75
2023/06/14 08:22:33;;;;;;;0.20;0.20;;;21.70;93.80;;;;;;5088138;28;20047;-76
2023/06/14 08:25:00;;;;;;;0.30;0.30;;;21.70;93.20;;;;;;5054821;28;20035;-76
2023/06/14 08:27:26;;;;;;;0.30;0.30;;;21.70;93.70;;;;;;5088275;28;20105;-75
2023/06/14 08:29:52;;;;;;;0.30;0.30;;;21.90;93.20;;;;;;5054521;28;20040;-76
2023/06/14 08:32:18;;;;;;;0.40;0.40;;;21.90;93.20;;;;;;5070890;28;20044;-75
2023/06/14 08:34:44;;;;;;;0.15;0.15;;;22.00;92.30;;;;;;5088148;28;20055;-76
2023/06/14 08:37:09;;;;;;;0.43;0.43;;;22.10;91.70;;;;;;5054237;28;20135;-76
2023/06/14 08:39:35;;;;;;;0.25;0.25;;;22.20;91.60;;;;;;5088443;28;20062;-76
2023/06/14 08:42:03;;;;;;;0.20;0.20;;;22.20;91.30;;;;;;5071169;28;20482;-75
2023/06/14 08:44:29;;;;;;;0.30;0.30;;;22.30;91.60;;;;;;5087820;28;20085;-76
2023/06/14 08:46:57;;;;;;;0.20;0.20;;;22.40;91.90;;;;;;5088186;28;20040;-76
2023/06/14 08:49:24;;;;;;;1.25;0.68;;;22.50;91.50;;;;;;5071292;28;20040;-76
2023/06/14 08:51:58;;;;;;;0.50;0.50;;;22.50;91.80;;;;;;5079568;28;20449;-76
2023/06/14 08:54:27;;;;;;;0.43;0.32;;;22.60;91.60;;;;;;5074100;28;20052;-76
2023/06/14 08:56:57;;;;;;;0.30;0.30;;;22.70;92.10;;;;;;5088052;28;20055;-76
2023/06/14 08:59:28;;;;;;;0.30;0.30;;;22.80;90.90;;;;;;5070855;28;20048;-76
2023/06/14 09:01:54;;;;;;;0.13;0.13;;;22.80;90.40;;;;;;5087982;28;20052;-76
2023/06/14 09:04:21;;;;;;;0.30;0.30;;;22.80;90.40;;;;;;5087631;28;20040;-76
2023/06/14 09:06:52;;;;;;;0.20;0.20;;;22.80;89.80;;;;;;5087762;28;20044;-75
2023/06/14 09:09:24;;;;;;;0.20;0.20;;;22.90;89.50;;;;;;5087643;28;20036;-75
2023/06/14 09:11:52;;;;;;;0.30;0.30;;;22.80;89.80;;;;;;5071883;28;20039;-75
2023/06/14 09:14:19;;;;;;;0.90;0.55;;;22.80;89.90;;;;;;5088047;28;20043;-76
2023/06/14 09:16:45;;;;;;;0.20;0.20;;;22.90;90.40;;;;;;5072151;28;20740;-76
2023/06/14 09:19:31;;;;;;;0.38;0.38;;;22.90;88.90;;;;;;5071272;28;20069;-75
2023/06/14 09:21:57;;;;;;;0.20;0.20;;;23.00;89.70;;;;;;5070761;28;20055;-76
2023/06/14 09:24:25;;;;;;;0.28;0.28;;;23.00;89.50;;;;;;5087507;28;20137;-75
2023/06/14 09:26:51;;;;;;;0.22;0.22;;;23.00;86.30;;;;;;5087655;28;20060;-75
2023/06/14 09:29:18;;;;;;;0.20;0.20;;;23.10;88.10;;;;;;5087323;28;20083;-75
2023/06/14 09:31:47;;;;;;;0.20;0.20;;;23.20;87.90;;;;;;5088299;28;20051;-74
2023/06/14 09:34:13;;;;;;;0.50;0.50;;;23.30;87.70;;;;;;5071132;28;20107;-76
2023/06/14 09:36:40;;;;;;;0.20;0.20;;;23.30;87.00;;;;;;5071283;28;20052;-75
2023/06/14 09:39:08;;;;;;;1.55;0.60;;;23.30;86.50;;;;;;5087467;28;20393;-75
2023/06/14 09:41:35;;;;;;;0.47;0.47;;;23.30;87.00;;;;;;5070880;28;20528;-76
2023/06/14 09:44:03;;;;;;;0.45;0.38;;;23.40;86.80;;;;;;5087047;28;20047;-77
2023/06/14 09:46:30;;;;;;;0.40;0.40;;;23.40;83.10;;;;;;5087208;28;20040;-75
2023/06/14 09:48:57;;;;;;;0.40;0.40;;;23.50;84.30;;;;;;5088324;28;20040;-74
2023/06/14 09:51:23;;;;;;;0.20;0.20;;;23.60;85.30;;;;;;5074030;28;20385;-75
2023/06/14 09:53:50;;;;;;;0.20;0.20;;;23.70;85.00;;;;;;5090983;28;20051;-75
2023/06/14 09:56:41;;;;;;;0.47;0.47;;;23.70;84.20;;;;;;5090718;28;20046;-75
2023/06/14 09:59:09;;;;;;;0.30;0.30;;;23.70;84.10;;;;;;5091197;28;20402;-75
2023/06/14 10:01:42;;;;;;;0.68;0.68;;;23.80;84.40;;;;;;5074000;28;20036;-75
2023/06/14 10:04:10;;;;;;;0.20;0.20;;;23.90;80.40;;;;;;5074425;28;20044;-75
2023/06/14 10:06:39;;;;;;;1.00;0.90;;;23.80;81.50;;;;;;5073772;28;20044;-76
2023/06/14 10:09:08;;;;;;;0.73;0.70;;;23.80;80.30;;;;;;5074235;28;20076;-76
2023/06/14 10:11:36;;;;;;;0.35;0.35;;;23.90;81.70;;;;;;5090759;28;20047;-75
2023/06/14 10:14:05;;;;;;;0.17;0.17;;;24.00;79.90;;;;;;5090947;28;20044;-74
2023/06/14 10:16:45;;;;;;;0.10;0.10;;;24.10;82.20;;;;;;5073644;28;20113;-76
2023/06/14 10:19:25;;;;;;;0.10;0.10;;;24.20;82.00;;;;;;5090578;28;20519;-75
2023/06/14 10:22:12;;;;;;;0.25;0.25;;;24.40;82.00;;;;;;5073814;28;20101;-75
2023/06/14 10:24:42;;;;;;;0.47;0.47;;;24.40;78.40;;;;;;5090349;28;20489;-75
2023/06/14 10:27:11;;;;;;;0.30;0.30;;;24.30;79.10;;;;;;5053388;28;20060;-76
2023/06/14 10:29:58;;;;;;;0.40;0.40;;;24.40;79.40;;;;;;5104153;28;20048;-75
2023/06/14 10:32:30;;;;;;;0.57;0.57;;;24.50;77.90;;;;;;5103561;28;20596;-76
2023/06/14 10:35:09;;;;;;;0.15;0.15;;;24.40;78.40;;;;;;5117900;27;20496;-76
2023/06/14 10:37:35;;;;;;;0.20;0.20;;;24.30;78.70;;;;;;5089856;28;20146;-76
2023/06/14 10:40:02;;;;;;;1.00;0.25;;;24.50;78.90;;;;;;5090341;28;20381;-75
2023/06/14 10:42:31;;;;;;;0.20;0.20;;;24.60;77.60;;;;;;5056250;28;20129;-74
2023/06/14 10:45:01;;;;;;;1.08;0.98;;;24.80;75.60;;;;;;5072982;28;20093;-76
2023/06/14 10:47:35;;;;;;;0.28;0.28;;;24.90;76.00;;;;;;5072732;28;20040;-75
2023/06/14 10:50:06;;;;;;;0.32;0.25;;;24.90;76.70;;;;;;5090041;28;20075;-76
2023/06/14 10:52:43;;;;;;;0.73;0.73;;;24.90;77.40;;;;;;5086910;28;20493;-76
2023/06/14 10:55:14;;;;;;;0.30;0.30;;;25.20;77.10;;;;;;5073095;28;20040;-76
2023/06/14 10:57:46;;;;;;;0.10;0.10;;;25.20;74.00;;;;;;5073629;28;20120;-75
2023/06/14 11:00:15;;;;;;;0.30;0.30;;;25.20;74.50;;;;;;5091387;28;20040;-76
2023/06/14 11:03:09;;;;;;;1.45;1.05;;;25.20;74.00;;;;;;5072700;28;20044;-75
2023/06/14 11:05:47;;;;;;;0.38;0.38;;;25.20;73.60;;;;;;5072492;28;20040;-75
2023/06/14 11:08:31;;;;;;;0.10;0.10;;;25.00;72.90;;;;;;5089838;28;20397;-76
2023/06/14 11:11:00;;;;;;;0.20;0.20;;;24.90;73.30;;;;;;5089723;28;20393;-76
2023/06/14 11:13:26;;;;;;;0.30;0.30;;;24.90;75.20;;;;;;5088857;28;20052;-75
2023/06/14 11:15:53;;;;;;;0.17;0.17;;;25.10;73.50;;;;;;5089055;28;20048;-75
2023/06/14 11:18:24;;;;;;;0.15;0.15;;;25.30;73.70;;;;;;5055427;28;20130;-76
2023/06/14 11:20:49;;;;;;;0.22;0.22;;;25.50;73.50;;;;;;5072385;28;20036;-75
2023/06/14 11:23:15;;;;;;;0.22;0.22;;;25.70;73.10;;;;;;5071862;28;20379;-75
2023/06/14 11:25:41;;;;;;;0.20;0.20;;;26.00;73.50;;;;;;5089303;28;20032;-76
2023/06/14 11:28:07;;;;;;;0.10;0.10;;;26.20;72.20;;;;;;5089962;28;20095;-76
2023/06/14 11:30:33;;;;;;;0.20;0.20;;;26.40;71.50;;;;;;5071992;28;20423;-76
2023/06/14 11:32:59;;;;;;;0.10;0.10;;;26.60;72.00;;;;;;5088956;28;20517;-77
2023/06/14 11:35:25;;;;;;;0.63;0.50;;;26.30;67.60;;;;;;5088591;28;20044;-76
2023/06/14 11:38:00;;;;;;;0.17;0.17;;;26.00;69.00;;;;;;5072447;28;20073;-76
2023/06/14 11:40:27;;;;;;;0.70;0.40;;;25.90;71.60;;;;;;5072107;28;20477;-77
2023/06/14 11:43:01;;;;;;;0.13;0.13;;;26.00;70.10;;;;;;5072149;28;20044;-76
2023/06/14 11:45:27;;;;;;;0.20;0.20;;;25.60;68.20;;;;;;5071685;28;20036;-76
2023/06/14 11:47:56;;;;;;;0.20;0.20;;;25.60;68.70;;;;;;5088607;28;20043;-76
2023/06/14 11:50:22;;;;;;;0.10;0.10;;;25.70;67.90;;;;;;5088948;28;20048;-76
2023/06/14 11:52:55;;;;;;;0.25;0.20;;;25.70;67.90;;;;;;5088876;28;20031;-75
2023/06/14 11:55:22;;;;;;;0.10;0.10;;;26.00;68.60;;;;;;5072747;28;20121;-76
2023/06/14 11:57:48;;;;;;;0.03;0.03;;;26.40;66.80;;;;;;5072175;28;20158;-76
2023/06/14 12:00:15;;;;;;;0.20;0.20;;;26.60;66.70;;;;;;5072235;28;20225;-76
2023/06/14 12:02:42;;;;;;;0.10;0.10;;;26.80;65.90;;;;;;5056072;28;20058;-76
2023/06/14 12:05:11;;;;;;;0.13;0.13;;;26.90;67.60;;;;;;5072418;28;20504;-76
2023/06/14 12:07:39;;;;;;;0.30;0.30;;;27.00;66.60;;;;;;5088331;28;20043;-76
2023/06/14 12:10:10;;;;;;;0.55;0.50;;;26.90;65.30;;;;;;5089763;28;20046;-76
2023/06/14 12:12:38;;;;;;;0.10;0.10;;;26.50;64.80;;;;;;5071442;28;20512;-77
2023/06/14 12:15:06;;;;;;;0.28;0.28;;;26.50;68.20;;;;;;5088701;28;20040;-76
2023/06/14 12:17:43;;;;;;;0.30;0.30;;;26.80;66.90;;;;;;5088211;28;20044;-76
2023/06/14 12:20:11;;;;;;;0.22;0.20;;;27.30;68.20;;;;;;5071772;28;20039;-76
2023/06/14 12:22:37;;;;;;;0.10;0.10;;;27.80;64.60;;;;;;5071299;28;20120;-76
2023/06/14 12:25:05;;;;;;;0.20;0.20;;;28.20;64.40;;;;;;5071464;28;20043;-76
2023/06/14 12:27:31;;;;;;;0.13;0.13;;;28.50;63.40;;;;;;5087982;28;20067;-76
2023/06/14 12:30:01;;;;;;;0.10;0.10;;;28.70;62.50;;;;;;5088621;28;20051;-76
2023/06/14 12:32:27;;;;;;;0.10;0.10;;;28.90;60.30;;;;;;5088442;28;20040;-76
2023/06/14 12:34:53;;;;;;;0.10;0.10;;;28.90;62.00;;;;;;5122676;28;20074;-75
2023/06/14 12:37:18;;;;;;;0.10;0.10;;;29.10;63.90;;;;;;5088818;28;20036;-76
2023/06/14 12:39:44;;;;;;;0.10;0.10;;;29.00;60.30;;;;;;5071080;28;20042;-76
2023/06/14 12:42:10;;;;;;;0.20;0.20;;;28.80;60.20;;;;;;5088374;28;20506;-76
2023/06/14 12:44:40;;;;;;;0.15;0.15;;;28.60;60.30;;;;;;5070780;28;20508;-76
2023/06/14 12:47:06;;;;;;;0.40;0.40;;;28.50;61.70;;;;;;5072538;28;20489;-76
2023/06/14 12:49:32;;;;;;;0.10;0.10;;;28.60;61.80;;;;;;5087906;28;20043;-76
2023/06/14 12:51:58;;;;;;;0.03;0.03;;;28.80;61.50;;;;;;5097271;28;20040;-76
2023/06/14 12:54:25;;;;;;;0.30;0.20;;;29.00;60.80;;;;;;5077789;28;20123;-76
2023/06/14 12:56:51;;;;;;;0.00;0.00;;;29.30;63.20;;;;;;5088592;28;20569;-76